createdAt,value
2022-08-20T00:00:36.248Z,101053.06
2022-08-20T00:03:08.781Z,101048.59
2022-08-20T00:05:41.347Z,101053.59
2022-08-20T00:08:12.111Z,101061.19
2022-08-20T00:10:47.705Z,101060.19
2022-08-20T00:13:25.423Z,101054.97
2022-08-20T00:15:55.549Z,101056.94
2022-08-20T00:18:26.068Z,101059.72
2022-08-20T00:20:56.941Z,101060.56
2022-08-20T00:23:26.950Z,101064.63
2022-08-20T00:25:58.982Z,101062.84
2022-08-20T00:28:28.521Z,101060.22
2022-08-20T00:30:58.078Z,101068.78
2022-08-20T00:33:28.554Z,101062.63
2022-08-20T00:35:59.439Z,101062.63
2022-08-20T00:38:28.979Z,101065.19
2022-08-20T00:41:01.729Z,101073.13
2022-08-20T00:43:37.337Z,101069.72
2022-08-20T00:46:10.836Z,101075.00
2022-08-20T00:48:43.758Z,101073.25
2022-08-20T00:51:17.869Z,101074.06
2022-08-20T00:53:48.022Z,101073.25
2022-08-20T00:56:20.302Z,101067.97
2022-08-20T00:58:51.022Z,101072.22
2022-08-20T01:01:20.801Z,101071.56
2022-08-20T01:03:50.345Z,101070.66
2022-08-20T01:06:19.853Z,101062.22
2022-08-20T01:08:49.451Z,101057.88
2022-08-20T01:11:23.231Z,101061.13
2022-08-20T01:13:54.845Z,101066.25
2022-08-20T01:16:28.711Z,101064.84
2022-08-20T01:19:00.401Z,101070.28
2022-08-20T01:21:33.606Z,101072.13
2022-08-20T01:24:05.529Z,101071.03
2022-08-20T01:26:40.818Z,101071.84
2022-08-20T01:29:14.594Z,101074.31
2022-08-20T01:31:44.549Z,101076.69
2022-08-20T01:34:24.463Z,101081.00
2022-08-20T01:36:56.123Z,101084.31
2022-08-20T01:39:27.458Z,101085.16
2022-08-20T01:42:08.803Z,101090.22
2022-08-20T01:44:40.335Z,101092.94
2022-08-20T01:47:16.549Z,101085.22
2022-08-20T01:49:51.032Z,101086.06
2022-08-20T01:52:27.286Z,101091.19
2022-08-20T01:54:56.942Z,101088.47
2022-08-20T01:57:29.537Z,101090.22
2022-08-20T01:59:59.103Z,101086.78
2022-08-20T02:02:28.881Z,101077.97
2022-08-20T02:04:58.698Z,101084.03
2022-08-20T02:07:28.699Z,101085.03
2022-08-20T02:09:58.421Z,101094.78
2022-08-20T02:12:30.511Z,101089.84
2022-08-20T02:15:00.566Z,101092.44
2022-08-20T02:17:30.420Z,101088.03
2022-08-20T02:20:02.249Z,101090.28
2022-08-20T02:22:39.065Z,101098.94
2022-08-20T02:25:10.816Z,101094.66
2022-08-20T02:27:45.993Z,101097.97
2022-08-20T02:30:27.856Z,101097.81
2022-08-20T02:32:58.669Z,101094.38
2022-08-20T02:35:28.488Z,101094.38
2022-08-20T02:37:58.694Z,101098.63
2022-08-20T02:40:31.272Z,101089.09
2022-08-20T02:43:04.577Z,101095.44
2022-08-20T02:45:44.008Z,101097.34
2022-08-20T02:48:15.565Z,101100.78
2022-08-20T02:50:46.706Z,101088.63
2022-08-20T02:53:16.222Z,101091.84
2022-08-20T02:55:45.797Z,101084.66
2022-08-20T02:58:17.966Z,101086.31
2022-08-20T03:00:48.262Z,101074.09
2022-08-20T03:03:22.344Z,101079.63
2022-08-20T03:05:54.011Z,101088.22
2022-08-20T03:08:24.308Z,101083.13
2022-08-20T03:10:54.630Z,101091.00
2022-08-20T03:13:27.253Z,101093.69
2022-08-20T03:15:59.694Z,101088.41
2022-08-20T03:18:32.801Z,101079.59
2022-08-20T03:21:02.809Z,101080.25
2022-08-20T03:23:32.726Z,101082.00
2022-08-20T03:26:05.322Z,101074.34
2022-08-20T03:28:37.820Z,101071.63
2022-08-20T03:31:08.437Z,101073.28
2022-08-20T03:33:39.474Z,101072.31
2022-08-20T03:36:28.003Z,101076.56
2022-08-20T03:38:58.490Z,101086.09
2022-08-20T03:41:29.110Z,101080.84
2022-08-20T03:44:01.417Z,101078.28
2022-08-20T03:46:30.901Z,101075.75
2022-08-20T03:49:00.913Z,101086.19
2022-08-20T03:51:30.970Z,101081.91
2022-08-20T03:54:00.812Z,101089.81
2022-08-20T03:56:31.794Z,101095.94
2022-08-20T03:59:03.865Z,101098.53
2022-08-20T04:01:44.377Z,101095.06
2022-08-20T04:04:15.653Z,101104.63
2022-08-20T04:06:47.546Z,101102.00
2022-08-20T04:09:17.566Z,101112.41
2022-08-20T04:11:47.157Z,101117.69
2022-08-20T04:14:20.538Z,101114.97
2022-08-20T04:16:50.249Z,101118.38
2022-08-20T04:19:21.630Z,101115.72
2022-08-20T04:21:51.153Z,101109.81
2022-08-20T04:24:27.500Z,101115.81
2022-08-20T04:27:02.729Z,101117.56
2022-08-20T04:29:36.583Z,101115.84
2022-08-20T04:32:07.499Z,101112.50
2022-08-20T04:34:38.679Z,101114.19
2022-08-20T04:37:17.138Z,101116.06
2022-08-20T04:40:07.107Z,101118.19
2022-08-20T04:42:36.127Z,101119.66
2022-08-20T04:45:10.733Z,101104.84
2022-08-20T04:47:40.242Z,101112.72
2022-08-20T04:50:11.981Z,101113.72
2022-08-20T04:52:41.713Z,101111.41
2022-08-20T04:55:12.574Z,101117.41
2022-08-20T04:57:42.130Z,101114.75
2022-08-20T05:00:17.700Z,101111.25
2022-08-20T05:02:47.475Z,101113.09
2022-08-20T05:05:17.038Z,101111.44
2022-08-20T05:07:48.555Z,101108.06
2022-08-20T05:10:20.550Z,101115.06
2022-08-20T05:12:55.114Z,101104.66
2022-08-20T05:15:29.374Z,101101.25
2022-08-20T05:18:00.703Z,101095.22
2022-08-20T05:20:32.661Z,101103.97
2022-08-20T05:23:02.262Z,101096.25
2022-08-20T05:25:32.374Z,101102.47
2022-08-20T05:28:02.973Z,101099.00
2022-08-20T05:30:35.727Z,101105.19
2022-08-20T05:33:06.350Z,101105.19
2022-08-20T05:35:38.607Z,101110.53
2022-08-20T05:38:09.086Z,101114.03
2022-08-20T05:40:38.586Z,101116.81
2022-08-20T05:43:08.096Z,101115.19
2022-08-20T05:45:42.170Z,101122.16
2022-08-20T05:48:14.254Z,101120.47
2022-08-20T05:50:45.386Z,101121.53
2022-08-20T05:53:14.954Z,101124.25
2022-08-20T05:55:45.522Z,101127.75
2022-08-20T05:58:19.118Z,101135.63
2022-08-20T06:00:51.910Z,101134.00
2022-08-20T06:03:34.499Z,101143.88
2022-08-20T06:06:05.634Z,101141.25
2022-08-20T06:08:47.702Z,101142.13
2022-08-20T06:11:17.215Z,101142.94
2022-08-20T06:13:46.680Z,101148.31
2022-08-20T06:16:18.890Z,101146.66
2022-08-20T06:18:50.174Z,101155.50
2022-08-20T06:21:19.758Z,101164.19
2022-08-20T06:23:57.590Z,101166.78
2022-08-20T06:26:31.119Z,101161.69
2022-08-20T06:29:00.739Z,101165.25
2022-08-20T06:31:32.875Z,101166.34
2022-08-20T06:34:02.447Z,101164.41
2022-08-20T06:36:31.944Z,101160.03
2022-08-20T06:39:01.438Z,101164.44
2022-08-20T06:41:36.892Z,101164.44
2022-08-20T06:44:07.538Z,101161.06
2022-08-20T06:46:43.408Z,101156.84
2022-08-20T06:49:13.109Z,101164.03
2022-08-20T06:51:42.674Z,101166.03
2022-08-20T06:54:12.454Z,101170.44
2022-08-20T06:56:44.153Z,101181.06
2022-08-20T06:59:13.669Z,101179.44
2022-08-20T07:01:45.740Z,101189.06
2022-08-20T07:04:15.873Z,101195.19
2022-08-20T07:06:45.604Z,101197.75
2022-08-20T07:09:15.095Z,101198.84
2022-08-20T07:11:44.582Z,101199.78
2022-08-20T07:14:14.143Z,101205.22
2022-08-20T07:16:47.934Z,101204.59
2022-08-20T07:19:17.875Z,101215.09
2022-08-20T07:21:48.162Z,101209.84
2022-08-20T07:24:17.835Z,101218.56
2022-08-20T07:26:47.364Z,101222.22
2022-08-20T07:29:17.033Z,101218.75
2022-08-20T07:32:06.315Z,101219.69
2022-08-20T07:34:39.325Z,101229.28
2022-08-20T07:37:14.297Z,101231.06
2022-08-20T07:39:43.794Z,101233.78
2022-08-20T07:42:13.368Z,101230.28
2022-08-20T07:44:43.054Z,101225.91
2022-08-20T07:47:15.251Z,101232.97
2022-08-20T07:49:44.755Z,101243.31
2022-08-20T07:52:15.691Z,101245.22
2022-08-20T07:54:45.463Z,101241.81
2022-08-20T07:57:17.282Z,101251.44
2022-08-20T07:59:47.109Z,101245.50
2022-08-20T08:02:19.182Z,101256.91
2022-08-20T08:04:48.723Z,101270.06
2022-08-20T08:07:18.816Z,101266.59
2022-08-20T08:09:48.993Z,101265.81
2022-08-20T08:12:18.837Z,101273.69
2022-08-20T08:14:49.591Z,101281.50
2022-08-20T08:17:22.102Z,101289.50
2022-08-20T08:19:52.606Z,101286.16
2022-08-20T08:22:22.789Z,101292.28
2022-08-20T08:24:56.710Z,101291.38
2022-08-20T08:27:27.291Z,101297.63
2022-08-20T08:29:56.805Z,101291.50
2022-08-20T08:32:30.726Z,101293.19
2022-08-20T08:35:00.342Z,101295.84
2022-08-20T08:37:30.946Z,101291.44
2022-08-20T08:40:01.512Z,101293.34
2022-08-20T08:42:42.606Z,101290.84
2022-08-20T08:45:13.519Z,101296.75
2022-08-20T08:47:46.619Z,101301.97
2022-08-20T08:50:43.771Z,101319.50
2022-08-20T08:53:19.045Z,101324.97
2022-08-20T08:55:48.551Z,101351.41
2022-08-20T08:58:18.043Z,101349.75
2022-08-20T09:00:56.008Z,101351.56
2022-08-20T09:03:32.853Z,101353.47
2022-08-20T09:06:04.682Z,101378.00
2022-08-20T09:08:38.437Z,101374.50
2022-08-20T09:11:10.522Z,101379.81
2022-08-20T09:13:40.662Z,101393.81
2022-08-20T09:16:10.411Z,101384.19
2022-08-20T09:18:42.755Z,101385.97
2022-08-20T09:21:12.309Z,101399.06
2022-08-20T09:23:41.806Z,101399.09
2022-08-20T09:26:11.455Z,101391.19
2022-08-20T09:28:41.082Z,101402.53
2022-08-20T09:31:13.113Z,101430.56
2022-08-20T09:33:48.156Z,101434.13
2022-08-20T09:36:29.227Z,101442.88
2022-08-20T09:39:02.637Z,101393.91
2022-08-20T09:41:33.881Z,101362.34
2022-08-20T09:44:04.322Z,101359.75
2022-08-20T09:46:33.827Z,101329.06
2022-08-20T09:49:06.051Z,101308.06
2022-08-20T09:51:38.556Z,101309.84
2022-08-20T09:54:08.640Z,101283.59
2022-08-20T09:56:38.479Z,101321.25
2022-08-20T09:59:08.086Z,101318.63
2022-08-20T10:01:37.677Z,101300.25
2022-08-20T10:04:09.973Z,101288.78
2022-08-20T10:06:42.166Z,101275.50
2022-08-20T10:09:11.657Z,101270.44
2022-08-20T10:11:41.296Z,101266.97
2022-08-20T10:14:11.713Z,101259.91
2022-08-20T10:16:42.318Z,101276.53
2022-08-20T10:19:14.409Z,101278.25
2022-08-20T10:21:43.917Z,101282.63
2022-08-20T10:24:13.434Z,101300.13
2022-08-20T10:26:44.006Z,101311.53
2022-08-20T10:29:13.473Z,101306.31
2022-08-20T10:31:43.114Z,101333.53
2022-08-20T10:36:45.054Z,101428.22
2022-08-20T10:39:14.719Z,101457.19
2022-08-20T10:41:44.321Z,101474.78
2022-08-20T10:44:13.908Z,101474.72
2022-08-20T10:46:43.397Z,101482.53
2022-08-20T10:49:15.501Z,101503.53
2022-08-20T10:51:45.018Z,101521.91
2022-08-20T10:54:17.091Z,101548.16
2022-08-20T10:56:46.590Z,101556.78
2022-08-20T10:59:16.122Z,101558.50
2022-08-20T11:01:45.560Z,101556.63
2022-08-20T11:04:17.753Z,101544.38
2022-08-20T11:06:47.267Z,101543.56
2022-08-20T11:09:16.902Z,101534.84
2022-08-20T11:11:46.447Z,101541.88
2022-08-20T11:14:16.043Z,101533.97
2022-08-20T11:16:45.583Z,101528.69
2022-08-20T11:19:17.689Z,101516.41
2022-08-20T11:21:47.226Z,101530.47
2022-08-20T11:24:16.813Z,101458.75
2022-08-20T11:26:46.870Z,101331.72
2022-08-20T11:29:16.345Z,101335.25
2022-08-20T11:31:46.170Z,101338.75
2022-08-20T11:34:18.337Z,101321.22
2022-08-20T11:36:48.638Z,101330.91
2022-08-20T11:39:18.509Z,101225.81
2022-08-20T11:41:48.457Z,101175.88
2022-08-20T11:44:25.128Z,101095.22
2022-08-20T11:46:55.131Z,100954.13
2022-08-20T11:49:27.233Z,100877.97
2022-08-20T11:51:56.777Z,100861.38
2022-08-20T11:54:28.929Z,100838.66
2022-08-20T11:56:59.608Z,100814.19
2022-08-20T11:59:29.488Z,100821.28
2022-08-20T12:02:02.746Z,100784.53
2022-08-20T12:04:35.959Z,100720.53
2022-08-20T12:07:13.757Z,100671.31
2022-08-20T12:09:51.249Z,100641.41
2022-08-20T12:12:23.393Z,100571.34
2022-08-20T12:27:32.750Z,100540.41
2022-08-20T12:30:04.112Z,100565.97
2022-08-20T12:32:35.485Z,100572.72
2022-08-20T12:35:05.343Z,100574.88
2022-08-20T12:37:35.174Z,100620.19
2022-08-20T12:40:07.487Z,100627.88
2022-08-20T12:42:40.085Z,100627.66
2022-08-20T12:45:11.185Z,100646.63
2022-08-20T12:47:42.106Z,100602.81
2022-08-20T12:50:16.514Z,100601.78
2022-08-20T12:52:46.133Z,100628.38
2022-08-20T12:55:17.790Z,100624.78
2022-08-20T12:57:52.447Z,100633.25
2022-08-20T13:00:24.289Z,100645.88
2022-08-20T13:02:54.470Z,100647.34
2022-08-20T13:05:24.265Z,100630.66
2022-08-20T13:07:54.602Z,100632.63
2022-08-20T13:10:25.649Z,100630.22
2022-08-20T13:12:58.063Z,100620.88
2022-08-20T13:15:28.050Z,100632.44
2022-08-20T13:17:58.954Z,100689.97
2022-08-20T13:20:30.942Z,100664.28
2022-08-20T13:23:03.751Z,100691.03
2022-08-20T13:25:33.578Z,100714.97
2022-08-20T13:28:07.478Z,100803.75
2022-08-20T13:30:39.137Z,100780.19
2022-08-20T13:33:08.824Z,100861.91
2022-08-20T13:35:38.495Z,100855.38
2022-08-20T13:38:08.017Z,100816.13
2022-08-20T13:40:37.489Z,100798.06
2022-08-20T13:43:11.835Z,100795.34
2022-08-20T13:45:42.138Z,100791.66
2022-08-20T13:48:15.017Z,100784.22
2022-08-20T13:50:47.273Z,100802.69
2022-08-20T13:53:17.625Z,100817.66
2022-08-20T13:55:47.942Z,100859.50
2022-08-20T13:58:22.338Z,100861.97
2022-08-20T14:00:52.269Z,100835.78
2022-08-20T14:03:25.759Z,100843.38
2022-08-20T14:05:55.645Z,100804.41
2022-08-20T14:08:26.757Z,100873.16
2022-08-20T14:10:56.258Z,100877.41
2022-08-20T14:13:29.108Z,100851.09
2022-08-20T14:15:58.715Z,100851.53
2022-08-20T14:18:28.247Z,100866.72
2022-08-20T14:20:57.810Z,100872.28
2022-08-20T14:23:27.341Z,100887.00
2022-08-20T14:25:56.798Z,100855.16
2022-08-20T14:28:28.890Z,100829.81
2022-08-20T14:30:58.383Z,100822.94
2022-08-20T14:33:27.988Z,100805.41
2022-08-20T14:35:57.683Z,100773.81
2022-08-20T14:38:27.174Z,100759.03
2022-08-20T14:40:56.698Z,100746.13
2022-08-20T14:43:28.880Z,100737.41
2022-08-20T14:45:58.459Z,100747.81
2022-08-20T14:48:28.338Z,100748.00
2022-08-20T14:50:59.512Z,100754.19
2022-08-20T14:53:29.219Z,100782.44
2022-08-20T14:55:58.701Z,100787.69
2022-08-20T14:58:31.011Z,100780.59
2022-08-20T15:01:00.582Z,100758.72
2022-08-20T15:03:31.001Z,100749.22
2022-08-20T15:06:01.229Z,100778.09
2022-08-20T15:08:31.583Z,100758.69
2022-08-20T15:11:01.208Z,100755.31
2022-08-20T15:13:33.431Z,100721.16
2022-08-20T15:16:03.021Z,100662.66
2022-08-20T15:18:32.767Z,100615.47
2022-08-20T15:21:02.265Z,100622.47
2022-08-20T15:23:31.899Z,100602.28
2022-08-20T15:26:01.390Z,100625.78
2022-08-20T15:28:33.498Z,100624.09
2022-08-20T15:31:03.015Z,100677.56
2022-08-20T15:33:32.559Z,100672.47
2022-08-20T15:36:02.151Z,100662.81
2022-08-20T15:38:33.050Z,100666.28
2022-08-20T15:41:03.099Z,100695.22
2022-08-20T15:43:36.073Z,100683.03
2022-08-20T15:46:07.914Z,100692.69
2022-08-20T15:48:39.870Z,100750.53
2022-08-20T15:51:27.508Z,100750.50
2022-08-20T15:54:00.812Z,100731.25
2022-08-20T15:56:41.071Z,100726.00
2022-08-20T15:59:20.180Z,100708.50
2022-08-20T16:01:58.749Z,100678.78
2022-08-20T16:04:57.265Z,100665.69
2022-08-20T16:07:30.272Z,100644.75
2022-08-20T16:10:06.912Z,100649.91
2022-08-20T16:12:38.115Z,100683.16
2022-08-20T16:15:12.425Z,100658.75
2022-08-20T16:17:45.398Z,100700.78
2022-08-20T16:20:22.767Z,100690.25
2022-08-20T16:22:53.206Z,100736.69
2022-08-20T16:25:24.276Z,100783.03
2022-08-20T16:28:03.069Z,100788.28
2022-08-20T16:30:40.497Z,100789.16
2022-08-20T16:33:13.875Z,100804.03
2022-08-20T16:35:51.573Z,100797.94
2022-08-20T16:38:24.269Z,100813.63
2022-08-20T16:40:58.195Z,100831.09
2022-08-20T16:43:35.578Z,100828.50
2022-08-20T16:46:15.519Z,100841.63
2022-08-20T16:48:49.898Z,100815.41
2022-08-20T16:51:21.275Z,100811.03
2022-08-20T16:53:50.878Z,100788.28
2022-08-20T16:56:34.518Z,100767.31
2022-08-20T16:59:08.789Z,100760.34
2022-08-20T17:01:41.719Z,100730.63
2022-08-20T17:04:12.855Z,100662.50
2022-08-20T17:06:47.243Z,100650.25
2022-08-20T17:09:20.225Z,100647.66
2022-08-20T17:11:51.021Z,100613.59
2022-08-20T17:14:22.143Z,100618.00
2022-08-20T17:16:55.398Z,100590.91
2022-08-20T17:19:33.825Z,100548.09
2022-08-20T17:22:11.610Z,100519.34
2022-08-20T17:24:41.681Z,100494.03
2022-08-20T17:27:14.973Z,100493.19
2022-08-20T17:29:52.349Z,100499.31
2022-08-20T17:32:26.352Z,100466.13
2022-08-20T17:34:57.962Z,100525.50
2022-08-20T17:37:29.296Z,100492.31
2022-08-20T17:40:12.375Z,100522.88
2022-08-20T17:42:49.788Z,100536.81
2022-08-20T17:45:25.183Z,100554.25
2022-08-20T17:47:59.881Z,100542.91
2022-08-20T17:50:32.146Z,100549.88
2022-08-20T17:53:06.429Z,100536.78
2022-08-20T17:55:38.528Z,100529.81
2022-08-20T17:58:13.911Z,100487.97
2022-08-20T18:00:44.409Z,100485.31
2022-08-20T18:03:25.414Z,100472.25
2022-08-20T18:06:00.655Z,100468.78
2022-08-20T18:08:39.898Z,100463.53
2022-08-20T18:11:20.928Z,100453.94
2022-08-20T18:14:19.125Z,100452.19
2022-08-20T18:16:59.005Z,100452.19
2022-08-20T18:19:45.343Z,100462.66
2022-08-20T18:22:16.660Z,100475.72
2022-08-20T18:24:48.022Z,100479.19
2022-08-20T18:27:20.474Z,100478.31
2022-08-20T18:29:54.887Z,100497.38
2022-08-20T18:32:31.083Z,100517.44
2022-08-20T18:35:15.706Z,100541.81
2022-08-20T18:37:45.233Z,100530.50
2022-08-20T18:40:22.011Z,100546.16
2022-08-20T18:42:51.659Z,100550.53
2022-08-20T18:45:31.214Z,100575.78
2022-08-20T18:48:02.716Z,100578.25
2022-08-20T18:50:46.586Z,100617.31
2022-08-20T18:53:19.789Z,100640.81
2022-08-20T18:56:03.414Z,100662.53
2022-08-20T18:58:35.283Z,100702.47
2022-08-20T19:01:06.986Z,100739.59
2022-08-20T19:03:41.474Z,100806.44
2022-08-20T19:06:22.405Z,100873.34
2022-08-20T19:08:54.811Z,100958.38
2022-08-20T19:11:43.990Z,101008.91
2022-08-20T19:14:43.685Z,101049.19
2022-08-20T19:17:17.978Z,101056.25
2022-08-20T19:19:47.502Z,101047.75
2022-08-20T19:22:20.506Z,101036.19
2022-08-20T19:24:58.602Z,101078.66
2022-08-20T19:27:28.958Z,101115.25
2022-08-20T19:29:58.524Z,101124.81
2022-08-20T19:44:57.726Z,101284.94
2022-08-20T19:47:32.710Z,101329.31
2022-08-20T19:50:11.452Z,101384.75
2022-08-20T19:52:49.598Z,101462.75
2022-08-20T19:55:24.894Z,101535.59
2022-08-20T19:57:56.441Z,101636.97
2022-08-20T20:00:31.248Z,101740.94
2022-08-20T20:03:11.296Z,101829.66
2022-08-20T20:05:49.685Z,101918.56
2022-08-20T20:08:19.182Z,101929.72
2022-08-20T20:10:54.267Z,101931.25
2022-08-20T20:13:24.882Z,101920.34
2022-08-20T20:16:00.996Z,101929.06
2022-08-20T20:18:33.150Z,101939.69
2022-08-20T20:21:14.099Z,101935.66
2022-08-20T20:23:46.693Z,101932.78
2022-08-20T20:26:20.947Z,101905.59
2022-08-20T20:28:53.476Z,101894.94
2022-08-20T20:31:30.786Z,101895.06
2022-08-20T20:34:02.803Z,101896.66
2022-08-20T20:36:38.219Z,101890.34
2022-08-20T20:39:14.288Z,101888.91
2022-08-20T20:41:53.593Z,101893.00
2022-08-20T20:44:24.682Z,101865.34
2022-08-20T20:46:59.781Z,101857.44
2022-08-20T20:49:31.345Z,101856.00
2022-08-20T20:52:05.093Z,101853.31
2022-08-20T20:54:45.596Z,101861.16
2022-08-20T20:57:37.736Z,101856.72
2022-08-20T21:00:11.492Z,101851.91
2022-08-20T21:02:43.818Z,101842.81
2022-08-20T21:05:14.906Z,101846.28
2022-08-20T21:07:50.539Z,101847.00
2022-08-20T21:10:21.996Z,101848.97
2022-08-20T21:12:53.123Z,101852.34
2022-08-20T21:15:27.984Z,101849.53
2022-08-20T21:18:01.894Z,101847.84
2022-08-20T21:20:32.270Z,101855.31
2022-08-20T21:23:01.953Z,101857.75
2022-08-20T21:25:32.383Z,101854.63
2022-08-20T21:28:02.289Z,101856.47
2022-08-20T21:30:31.795Z,101839.34
2022-08-20T21:33:04.030Z,101824.06
2022-08-20T21:35:33.588Z,101782.31
2022-08-20T21:38:03.103Z,101784.97
2022-08-20T21:40:32.822Z,101795.31
2022-08-20T21:43:06.949Z,101803.94
2022-08-20T21:45:36.779Z,101802.78
2022-08-20T21:48:09.979Z,101804.88
2022-08-20T21:50:40.370Z,101780.88
2022-08-20T21:53:12.595Z,101772.06
2022-08-20T21:55:43.347Z,101787.75
2022-08-20T21:58:12.874Z,101778.66
2022-08-20T22:00:57.390Z,101794.31
2022-08-20T22:03:31.227Z,101795.69
2022-08-20T22:06:01.374Z,101778.94
2022-08-20T22:08:30.985Z,101769.53
2022-08-20T22:11:01.685Z,101766.47
2022-08-20T22:13:33.634Z,101769.00
2022-08-20T22:16:03.932Z,101758.97
2022-08-20T22:18:36.350Z,101743.38
2022-08-20T22:21:09.483Z,101731.44
2022-08-20T22:23:40.135Z,101733.34
2022-08-20T22:26:10.326Z,101737.47
2022-08-20T22:28:40.218Z,101738.03
2022-08-20T22:31:10.186Z,101735.34
2022-08-20T22:33:43.740Z,101734.56
2022-08-20T22:36:13.803Z,101730.38
2022-08-20T22:38:43.347Z,101731.97
2022-08-20T22:41:16.000Z,101713.16
2022-08-20T22:43:56.679Z,101717.50
2022-08-20T22:46:27.502Z,101724.97
2022-08-20T22:48:59.755Z,101715.56
2022-08-20T22:51:31.950Z,101716.06
2022-08-20T22:54:05.681Z,101697.59
2022-08-20T22:56:35.286Z,101669.09
2022-08-20T22:59:05.174Z,101663.91
2022-08-20T23:01:34.971Z,101656.03
2022-08-20T23:04:10.079Z,101666.97
2022-08-20T23:06:39.595Z,101673.47
2022-08-20T23:09:09.199Z,101670.03
2022-08-20T23:11:42.883Z,101673.22
2022-08-20T23:14:12.389Z,101656.97
2022-08-20T23:16:44.730Z,101671.19
2022-08-20T23:19:21.560Z,101676.75
2022-08-20T23:21:51.389Z,101680.28
2022-08-20T23:24:21.214Z,101671.47
2022-08-20T23:26:53.252Z,101683.38
2022-08-20T23:29:25.641Z,101679.59
2022-08-20T23:31:56.003Z,101684.94
2022-08-20T23:34:28.789Z,101695.88
2022-08-20T23:36:59.314Z,101683.50
2022-08-20T23:39:31.332Z,101663.22
2022-08-20T23:42:01.401Z,101646.97
2022-08-20T23:44:31.077Z,101631.28
2022-08-20T23:47:03.057Z,101606.66
2022-08-20T23:49:35.281Z,101600.16
2022-08-20T23:52:04.870Z,101596.91
2022-08-20T23:54:35.698Z,101593.69
2022-08-20T23:57:08.185Z,101580.38
2022-08-20T23:59:38.400Z,101561.53
